createdAt,value
2018-12-13T00:00:17.941Z,45.11
2018-12-13T00:06:12.935Z,52.76
2018-12-13T00:12:07.984Z,51.69
2018-12-13T00:18:02.928Z,112.19
2018-12-13T00:23:57.923Z,60.11
2018-12-13T00:29:52.918Z,54.41
2018-12-13T00:35:47.939Z,45.16
2018-12-13T00:41:42.927Z,49.22
2018-12-13T00:47:37.965Z,53.97
2018-12-13T00:53:32.970Z,38.38
2018-12-13T00:59:27.922Z,39.65
2018-12-13T01:05:22.944Z,47.16
2018-12-13T01:11:17.945Z,41.95
2018-12-13T01:17:12.927Z,40.67
2018-12-13T01:23:07.964Z,46.01
2018-12-13T01:29:02.982Z,42.21
2018-12-13T01:34:57.981Z,43.21
2018-12-13T01:40:52.982Z,53.08
2018-12-13T01:46:47.986Z,45.42
2018-12-13T01:52:42.936Z,46.07
2018-12-13T01:58:37.974Z,42.91
2018-12-13T02:04:32.992Z,53.27
2018-12-13T02:10:27.967Z,54.84
2018-12-13T02:16:22.965Z,53.08
2018-12-13T02:22:17.952Z,55.81
2018-12-13T02:28:12.958Z,44.88
2018-12-13T02:34:07.971Z,47.67
2018-12-13T02:40:02.978Z,33.6
2018-12-13T02:45:57.999Z,35.02
2018-12-13T02:51:52.976Z,51.43
2018-12-13T02:57:47.985Z,40.45
2018-12-13T03:03:43.036Z,42.63
2018-12-13T03:09:37.972Z,34.18
2018-12-13T03:15:32.966Z,47.43
2018-12-13T03:21:28.041Z,37.31
2018-12-13T03:27:23.027Z,26.66
2018-12-13T03:33:17.979Z,56.5
2018-12-13T03:39:12.976Z,27.13
2018-12-13T03:45:07.997Z,17.19
2018-12-13T03:51:02.984Z,4.83
2018-12-13T03:56:57.994Z,3.59
2018-12-13T04:02:53.035Z,2.59
2018-12-13T04:08:48.054Z,4.74
2018-12-13T04:14:42.986Z,6.5
2018-12-13T04:20:37.999Z,3.86
2018-12-13T04:26:33.010Z,2.62
2018-12-13T04:32:27.999Z,3.97
2018-12-13T04:38:23.000Z,7.8
2018-12-13T04:44:18.076Z,12.48
2018-12-13T04:50:13.110Z,10.31
2018-12-13T04:56:08.013Z,10.44
2018-12-13T05:02:03.014Z,11.3
2018-12-13T05:07:58.020Z,20.68
2018-12-13T05:13:53.019Z,26.32
2018-12-13T05:19:48.018Z,29.78
2018-12-13T05:25:43.016Z,31
2018-12-13T05:31:37.987Z,27.51
2018-12-13T05:37:33.024Z,24.17
2018-12-13T05:43:28.022Z,24.24
2018-12-13T05:49:22.981Z,22.89
2018-12-13T05:55:18.031Z,19.69
2018-12-13T06:01:13.008Z,25.18
2018-12-13T06:07:08.054Z,24.96
2018-12-13T06:13:03.012Z,26.27
2018-12-13T06:18:58.027Z,32.7
2018-12-13T06:24:53.056Z,26.02
2018-12-13T06:30:48.024Z,33.36
2018-12-13T06:36:43.057Z,32.82
2018-12-13T06:42:38.014Z,29.83
2018-12-13T06:48:33.032Z,24.24
2018-12-13T06:54:28.040Z,25.84
2018-12-13T07:00:23.135Z,29.18
2018-12-13T07:06:18.021Z,28.24
2018-12-13T07:12:13.067Z,24.2
2018-12-13T07:18:08.037Z,27.08
2018-12-13T07:24:03.071Z,26.13
2018-12-13T07:29:58.032Z,24.88
2018-12-13T07:35:53.055Z,21.55
2018-12-13T07:41:48.042Z,19.2
2018-12-13T07:47:43.045Z,23.24
2018-12-13T07:53:38.063Z,21.92
2018-12-13T07:59:33.058Z,20.1
2018-12-13T08:05:28.064Z,19.36
2018-12-13T08:11:23.035Z,30.79
2018-12-13T08:17:18.111Z,22.1
2018-12-13T08:23:13.063Z,21.46
2018-12-13T08:29:08.156Z,15.85
2018-12-13T08:35:03.092Z,17.1
2018-12-13T08:40:58.062Z,16.29
2018-12-13T08:46:53.089Z,16.23
2018-12-13T08:52:48.054Z,14.66
2018-12-13T08:58:43.079Z,14.61
2018-12-13T09:04:38.060Z,16.29
2018-12-13T09:10:33.085Z,20.81
2018-12-13T09:16:31.398Z,22.21
2018-12-13T09:22:23.101Z,24.62
2018-12-13T09:28:18.123Z,16.31
2018-12-13T09:34:13.061Z,18.34
2018-12-13T09:40:08.067Z,21.76
2018-12-13T09:46:03.066Z,21.99
2018-12-13T09:51:58.164Z,18.75
2018-12-13T09:57:53.107Z,6.71
2018-12-13T10:03:48.074Z,6.46
2018-12-13T10:09:43.096Z,5.61
2018-12-13T10:15:38.111Z,8.77
2018-12-13T10:21:33.101Z,9.04
2018-12-13T10:27:28.115Z,9.34
2018-12-13T10:33:23.067Z,8.65
2018-12-13T10:39:18.083Z,20.93
2018-12-13T10:45:13.117Z,13.24
2018-12-13T10:51:08.104Z,9.1
2018-12-13T10:57:03.143Z,8.95
2018-12-13T11:02:58.104Z,8.68
2018-12-13T11:08:59.199Z,8.8
2018-12-13T11:14:48.109Z,6.42
2018-12-13T11:20:43.128Z,7.64
2018-12-13T11:26:38.116Z,6.42
2018-12-13T11:32:33.117Z,7.38
2018-12-13T11:38:28.094Z,9.63
2018-12-13T11:44:23.111Z,7.77
2018-12-13T11:50:18.123Z,8.29
2018-12-13T11:56:13.088Z,7.1
2018-12-13T12:02:08.118Z,8.02
2018-12-13T12:08:03.112Z,9.1
2018-12-13T12:13:58.085Z,7.43
2018-12-13T12:19:53.097Z,5.15
2018-12-13T12:25:48.234Z,5.49
2018-12-13T12:31:43.127Z,5.31
2018-12-13T12:37:38.128Z,5.08
2018-12-13T12:43:33.133Z,5.38
2018-12-13T12:49:28.099Z,4.4
2018-12-13T12:55:23.103Z,4.65
2018-12-13T13:01:18.127Z,3.9
2018-12-13T13:07:13.105Z,2.26
2018-12-13T13:13:08.162Z,4.74
2018-12-13T13:19:03.118Z,4.58
2018-12-13T13:24:58.113Z,5.4
2018-12-13T13:30:53.121Z,4.47
2018-12-13T13:36:48.112Z,3.5
2018-12-13T13:42:43.127Z,3.9
2018-12-13T13:48:38.134Z,5.58
2018-12-13T13:54:33.137Z,3.57
2018-12-13T14:00:28.111Z,4.53
2018-12-13T14:06:23.156Z,2.96
2018-12-13T14:12:18.149Z,7.08
2018-12-13T14:18:13.131Z,4.2
2018-12-13T14:24:08.119Z,26.9
2018-12-13T14:30:03.170Z,11.41
2018-12-13T14:35:58.173Z,9.69
2018-12-13T14:41:53.165Z,6.93
2018-12-13T14:47:48.160Z,7.94
2018-12-13T14:53:43.133Z,9.46
2018-12-13T14:59:38.133Z,30.4
2018-12-13T15:05:33.168Z,22.75
2018-12-13T15:11:28.152Z,8.87
2018-12-13T15:17:23.188Z,4.36
2018-12-13T15:23:18.154Z,10.45
2018-12-13T15:29:13.152Z,2.8
2018-12-13T15:35:08.163Z,4.62
2018-12-13T15:41:03.159Z,3.49
2018-12-13T15:46:58.175Z,3.36
2018-12-13T15:52:53.173Z,2.23
2018-12-13T15:58:48.174Z,2.92
2018-12-13T16:04:44.360Z,2.1
2018-12-13T16:10:39.454Z,5
2018-12-13T16:16:33.220Z,7.62
2018-12-13T16:22:28.191Z,7.51
2018-12-13T16:28:23.211Z,34.98
2018-12-13T16:34:18.157Z,3.51
2018-12-13T16:40:13.147Z,3.38
2018-12-13T16:46:08.189Z,4.41
2018-12-13T16:52:03.157Z,23.6
2018-12-13T16:57:58.154Z,19.12
2018-12-13T17:03:53.197Z,14.03
2018-12-13T17:09:48.166Z,9.97
2018-12-13T17:15:43.224Z,6.75
2018-12-13T17:21:38.178Z,20.67
2018-12-13T17:27:33.170Z,4.59
2018-12-13T17:33:28.202Z,8.71
2018-12-13T17:39:23.188Z,3.78
2018-12-13T17:45:18.213Z,7.13
2018-12-13T17:51:13.202Z,4.58
2018-12-13T17:57:08.198Z,5.02
2018-12-13T18:03:03.190Z,11.32
2018-12-13T18:08:58.184Z,6.08
2018-12-13T18:14:53.195Z,6.76
2018-12-13T18:20:48.194Z,6.48
2018-12-13T18:26:43.182Z,4.67
2018-12-13T18:32:38.191Z,11.8
2018-12-13T18:38:33.210Z,11.53
2018-12-13T18:44:28.215Z,8.75
2018-12-13T18:50:23.256Z,16.55
2018-12-13T18:56:18.277Z,10.5
2018-12-13T19:02:13.192Z,5.58
2018-12-13T19:08:08.197Z,9.48
2018-12-13T19:14:03.254Z,7.06
2018-12-13T19:19:58.202Z,12.2
2018-12-13T19:25:53.206Z,10.74
2018-12-13T19:31:48.204Z,6.26
2018-12-13T19:37:43.269Z,10.03
2018-12-13T19:43:38.221Z,8.3
2018-12-13T19:49:33.229Z,10.31
2018-12-13T19:55:28.220Z,5.3
2018-12-13T20:01:23.259Z,6.7
2018-12-13T20:07:18.277Z,11.55
2018-12-13T20:13:13.246Z,7.98
2018-12-13T20:19:08.220Z,4.55
2018-12-13T20:25:03.293Z,6.51
2018-12-13T20:30:58.245Z,4.38
2018-12-13T20:36:53.208Z,3.73
2018-12-13T20:42:48.281Z,14.23
2018-12-13T20:48:43.230Z,10.32
2018-12-13T20:54:38.204Z,3.69
2018-12-13T21:00:33.218Z,11.2
2018-12-13T21:06:28.219Z,5.64
2018-12-13T21:12:23.249Z,4.3
2018-12-13T21:18:18.261Z,4.89
2018-12-13T21:24:13.230Z,14.63
2018-12-13T21:30:08.226Z,9.97
2018-12-13T21:36:03.250Z,40.62
2018-12-13T21:41:58.229Z,31.18
2018-12-13T21:47:53.706Z,20.22
2018-12-13T21:53:48.264Z,11.15
2018-12-13T21:59:43.254Z,17.31
2018-12-13T22:05:38.298Z,6.32
2018-12-13T22:11:33.260Z,9.36
2018-12-13T22:17:28.240Z,8.57
2018-12-13T22:23:23.251Z,13.61
2018-12-13T22:29:18.273Z,7.21
2018-12-13T22:35:13.259Z,14.07
2018-12-13T22:41:08.256Z,7.83
2018-12-13T22:47:03.257Z,5.94
2018-12-13T22:52:58.263Z,8.95
2018-12-13T22:58:53.254Z,5.68
2018-12-13T23:04:48.263Z,4.32
2018-12-13T23:10:43.262Z,5.58
2018-12-13T23:16:38.309Z,7.52
2018-12-13T23:22:33.288Z,3.27
2018-12-13T23:28:28.262Z,15.37
2018-12-13T23:34:23.270Z,12.25
2018-12-13T23:40:18.274Z,6.67
2018-12-13T23:46:13.262Z,10.6
2018-12-13T23:52:08.304Z,6.67
2018-12-13T23:58:03.274Z,7.24
